sensor_id;sensor_type;location;lat;lon;timestamp;temperature;humidity
37678;DHT22;23517;50.390;8.616;2022-12-07T00:01:44;3.40;80.90
37678;DHT22;23517;50.390;8.616;2022-12-07T00:04:14;3.50;81.20
37678;DHT22;23517;50.390;8.616;2022-12-07T00:06:44;3.40;81.10
37678;DHT22;23517;50.390;8.616;2022-12-07T00:09:17;3.40;81.20
37678;DHT22;23517;50.390;8.616;2022-12-07T00:11:50;3.50;81.70
37678;DHT22;23517;50.390;8.616;2022-12-07T00:14:18;3.50;80.90
37678;DHT22;23517;50.390;8.616;2022-12-07T00:16:45;3.50;80.20
37678;DHT22;23517;50.390;8.616;2022-12-07T00:19:13;3.40;80.70
37678;DHT22;23517;50.390;8.616;2022-12-07T00:21:40;3.40;80.80
37678;DHT22;23517;50.390;8.616;2022-12-07T00:24:07;3.40;81.10
37678;DHT22;23517;50.390;8.616;2022-12-07T00:26:36;3.50;81.20
37678;DHT22;23517;50.390;8.616;2022-12-07T00:29:06;3.50;80.30
37678;DHT22;23517;50.390;8.616;2022-12-07T00:31:37;3.50;80.40
37678;DHT22;23517;50.390;8.616;2022-12-07T00:34:12;3.40;80.40
37678;DHT22;23517;50.390;8.616;2022-12-07T00:36:41;3.40;80.80
37678;DHT22;23517;50.390;8.616;2022-12-07T00:39:07;3.40;81.10
37678;DHT22;23517;50.390;8.616;2022-12-07T00:41:34;3.60;81.20
37678;DHT22;23517;50.390;8.616;2022-12-07T00:44:01;3.40;80.60
37678;DHT22;23517;50.390;8.616;2022-12-07T00:46:28;3.40;80.50
37678;DHT22;23517;50.390;8.616;2022-12-07T00:48:55;3.40;80.60
37678;DHT22;23517;50.390;8.616;2022-12-07T00:51:23;3.40;80.80
37678;DHT22;23517;50.390;8.616;2022-12-07T00:53:51;3.40;80.40
37678;DHT22;23517;50.390;8.616;2022-12-07T00:56:21;3.40;81.00
37678;DHT22;23517;50.390;8.616;2022-12-07T00:58:55;3.40;80.80
37678;DHT22;23517;50.390;8.616;2022-12-07T01:01:30;3.40;81.60
37678;DHT22;23517;50.390;8.616;2022-12-07T01:03:59;3.40;80.60
37678;DHT22;23517;50.390;8.616;2022-12-07T01:06:30;3.40;80.90
37678;DHT22;23517;50.390;8.616;2022-12-07T01:08:57;3.50;79.70
37678;DHT22;23517;50.390;8.616;2022-12-07T01:11:28;3.50;79.90
37678;DHT22;23517;50.390;8.616;2022-12-07T01:13:57;3.50;79.40
37678;DHT22;23517;50.390;8.616;2022-12-07T01:16:27;3.50;79.70
37678;DHT22;23517;50.390;8.616;2022-12-07T01:18:56;3.50;79.00
37678;DHT22;23517;50.390;8.616;2022-12-07T01:21:31;3.50;79.00
37678;DHT22;23517;50.390;8.616;2022-12-07T01:24:06;3.50;79.60
37678;DHT22;23517;50.390;8.616;2022-12-07T01:26:34;3.50;79.00
37678;DHT22;23517;50.390;8.616;2022-12-07T01:29:00;3.50;79.10
37678;DHT22;23517;50.390;8.616;2022-12-07T01:31:28;3.50;79.00
37678;DHT22;23517;50.390;8.616;2022-12-07T01:33:57;3.50;78.30
37678;DHT22;23517;50.390;8.616;2022-12-07T01:36:28;3.50;79.00
37678;DHT22;23517;50.390;8.616;2022-12-07T01:38:59;3.50;78.60
37678;DHT22;23517;50.390;8.616;2022-12-07T01:41:31;3.50;79.50
37678;DHT22;23517;50.390;8.616;2022-12-07T01:44:15;3.50;79.00
37678;DHT22;23517;50.390;8.616;2022-12-07T01:49:35;3.40;79.00
37678;DHT22;23517;50.390;8.616;2022-12-07T01:52:21;3.40;78.90
37678;DHT22;23517;50.390;8.616;2022-12-07T01:54:54;3.30;80.10
37678;DHT22;23517;50.390;8.616;2022-12-07T01:57:22;3.30;81.00
37678;DHT22;23517;50.390;8.616;2022-12-07T01:59:51;3.20;81.00
37678;DHT22;23517;50.390;8.616;2022-12-07T02:02:23;3.20;81.90
37678;DHT22;23517;50.390;8.616;2022-12-07T02:04:53;3.10;81.90
37678;DHT22;23517;50.390;8.616;2022-12-07T02:07:21;3.10;82.20
37678;DHT22;23517;50.390;8.616;2022-12-07T02:09:49;3.10;82.40
37678;DHT22;23517;50.390;8.616;2022-12-07T02:12:16;3.10;82.90
37678;DHT22;23517;50.390;8.616;2022-12-07T02:14:42;3.10;82.10
37678;DHT22;23517;50.390;8.616;2022-12-07T02:17:21;3.10;82.40
37678;DHT22;23517;50.390;8.616;2022-12-07T02:31:44;3.10;84.10
37678;DHT22;23517;50.390;8.616;2022-12-07T02:34:45;3.10;84.10
37678;DHT22;23517;50.390;8.616;2022-12-07T02:40:07;3.10;84.60
37678;DHT22;23517;50.390;8.616;2022-12-07T02:42:42;3.20;84.40
37678;DHT22;23517;50.390;8.616;2022-12-07T02:45:14;3.20;84.50
37678;DHT22;23517;50.390;8.616;2022-12-07T02:47:43;3.30;84.00
37678;DHT22;23517;50.390;8.616;2022-12-07T02:50:11;3.20;84.20
37678;DHT22;23517;50.390;8.616;2022-12-07T02:52:38;3.30;83.70
37678;DHT22;23517;50.390;8.616;2022-12-07T02:55:05;3.30;83.80
37678;DHT22;23517;50.390;8.616;2022-12-07T02:57:45;3.30;84.00
37678;DHT22;23517;50.390;8.616;2022-12-07T03:00:21;3.30;83.90
37678;DHT22;23517;50.390;8.616;2022-12-07T03:05:54;3.30;83.10
37678;DHT22;23517;50.390;8.616;2022-12-07T03:11:21;3.40;83.80
37678;DHT22;23517;50.390;8.616;2022-12-07T03:14:30;3.40;83.40
37678;DHT22;23517;50.390;8.616;2022-12-07T03:17:05;3.40;84.10
37678;DHT22;23517;50.390;8.616;2022-12-07T03:19:36;3.40;83.90
37678;DHT22;23517;50.390;8.616;2022-12-07T03:22:07;3.40;83.90
37678;DHT22;23517;50.390;8.616;2022-12-07T03:24:47;3.40;83.70
37678;DHT22;23517;50.390;8.616;2022-12-07T03:27:22;3.40;84.30
37678;DHT22;23517;50.390;8.616;2022-12-07T03:29:56;3.50;83.60
37678;DHT22;23517;50.390;8.616;2022-12-07T03:32:32;3.50;83.90
37678;DHT22;23517;50.390;8.616;2022-12-07T03:37:39;3.50;83.30
37678;DHT22;23517;50.390;8.616;2022-12-07T03:40:37;3.50;83.70
37678;DHT22;23517;50.390;8.616;2022-12-07T03:43:07;3.50;83.00
37678;DHT22;23517;50.390;8.616;2022-12-07T03:45:44;3.50;82.60
37678;DHT22;23517;50.390;8.616;2022-12-07T03:51:28;3.50;83.50
37678;DHT22;23517;50.390;8.616;2022-12-07T03:54:21;3.50;84.30
37678;DHT22;23517;50.390;8.616;2022-12-07T03:56:51;3.50;83.60
37678;DHT22;23517;50.390;8.616;2022-12-07T03:59:19;3.50;84.00
37678;DHT22;23517;50.390;8.616;2022-12-07T04:01:53;3.50;84.40
37678;DHT22;23517;50.390;8.616;2022-12-07T04:04:23;3.60;84.20
37678;DHT22;23517;50.390;8.616;2022-12-07T04:06:50;3.60;83.80
37678;DHT22;23517;50.390;8.616;2022-12-07T04:09:17;3.60;84.00
37678;DHT22;23517;50.390;8.616;2022-12-07T04:11:44;3.60;84.20
37678;DHT22;23517;50.390;8.616;2022-12-07T04:14:10;3.60;84.40
37678;DHT22;23517;50.390;8.616;2022-12-07T04:16:56;3.60;84.60
37678;DHT22;23517;50.390;8.616;2022-12-07T04:19:29;3.60;84.60
37678;DHT22;23517;50.390;8.616;2022-12-07T04:21:58;3.60;85.10
37678;DHT22;23517;50.390;8.616;2022-12-07T04:24:26;3.60;85.80
37678;DHT22;23517;50.390;8.616;2022-12-07T04:26:53;3.60;84.90
37678;DHT22;23517;50.390;8.616;2022-12-07T04:29:21;3.60;85.20
37678;DHT22;23517;50.390;8.616;2022-12-07T04:31:48;3.60;85.40
37678;DHT22;23517;50.390;8.616;2022-12-07T04:34:16;3.60;85.30
37678;DHT22;23517;50.390;8.616;2022-12-07T04:36:44;3.60;86.00
37678;DHT22;23517;50.390;8.616;2022-12-07T04:39:22;3.70;85.20
37678;DHT22;23517;50.390;8.616;2022-12-07T04:41:51;3.70;84.80
37678;DHT22;23517;50.390;8.616;2022-12-07T04:44:18;3.60;85.10
37678;DHT22;23517;50.390;8.616;2022-12-07T04:46:46;3.70;85.20
37678;DHT22;23517;50.390;8.616;2022-12-07T04:49:13;3.70;85.40
37678;DHT22;23517;50.390;8.616;2022-12-07T04:51:42;3.60;84.80
37678;DHT22;23517;50.390;8.616;2022-12-07T04:54:09;3.60;85.40
37678;DHT22;23517;50.390;8.616;2022-12-07T04:56:36;3.70;85.50
37678;DHT22;23517;50.390;8.616;2022-12-07T04:59:04;3.70;84.80
37678;DHT22;23517;50.390;8.616;2022-12-07T05:01:31;3.70;84.40
37678;DHT22;23517;50.390;8.616;2022-12-07T05:03:59;3.70;84.60
37678;DHT22;23517;50.390;8.616;2022-12-07T05:06:28;3.70;84.40
37678;DHT22;23517;50.390;8.616;2022-12-07T05:08:54;3.70;84.60
37678;DHT22;23517;50.390;8.616;2022-12-07T05:11:21;3.60;84.40
37678;DHT22;23517;50.390;8.616;2022-12-07T05:14:18;3.70;85.00
37678;DHT22;23517;50.390;8.616;2022-12-07T05:16:48;3.70;85.30
37678;DHT22;23517;50.390;8.616;2022-12-07T05:19:17;3.60;85.60
37678;DHT22;23517;50.390;8.616;2022-12-07T05:21:45;3.70;85.30
37678;DHT22;23517;50.390;8.616;2022-12-07T05:24:13;3.80;85.00
37678;DHT22;23517;50.390;8.616;2022-12-07T05:26:41;3.70;85.20
37678;DHT22;23517;50.390;8.616;2022-12-07T05:29:14;3.70;85.60
37678;DHT22;23517;50.390;8.616;2022-12-07T05:31:42;3.70;85.50
37678;DHT22;23517;50.390;8.616;2022-12-07T05:34:09;3.70;85.40
37678;DHT22;23517;50.390;8.616;2022-12-07T05:36:36;3.70;85.80
37678;DHT22;23517;50.390;8.616;2022-12-07T05:39:03;3.70;85.70
37678;DHT22;23517;50.390;8.616;2022-12-07T05:41:30;3.60;86.30
37678;DHT22;23517;50.390;8.616;2022-12-07T05:44:15;3.60;87.10
37678;DHT22;23517;50.390;8.616;2022-12-07T05:46:42;3.60;87.70
37678;DHT22;23517;50.390;8.616;2022-12-07T05:49:09;3.70;88.10
37678;DHT22;23517;50.390;8.616;2022-12-07T05:51:35;3.60;87.90
37678;DHT22;23517;50.390;8.616;2022-12-07T05:54:02;3.60;87.90
37678;DHT22;23517;50.390;8.616;2022-12-07T05:56:29;3.50;88.10
37678;DHT22;23517;50.390;8.616;2022-12-07T05:58:56;3.50;89.10
37678;DHT22;23517;50.390;8.616;2022-12-07T06:02:00;3.50;88.20
37678;DHT22;23517;50.390;8.616;2022-12-07T06:04:34;3.40;88.20
37678;DHT22;23517;50.390;8.616;2022-12-07T06:07:04;3.30;88.90
37678;DHT22;23517;50.390;8.616;2022-12-07T06:09:31;3.30;89.80
37678;DHT22;23517;50.390;8.616;2022-12-07T06:11:59;3.30;89.70
37678;DHT22;23517;50.390;8.616;2022-12-07T06:14:45;3.30;90.70
37678;DHT22;23517;50.390;8.616;2022-12-07T06:17:12;3.30;90.50
37678;DHT22;23517;50.390;8.616;2022-12-07T06:19:39;3.30;90.20
37678;DHT22;23517;50.390;8.616;2022-12-07T06:22:06;3.30;90.50
37678;DHT22;23517;50.390;8.616;2022-12-07T06:24:33;3.40;90.40
37678;DHT22;23517;50.390;8.616;2022-12-07T06:27:00;3.40;90.50
37678;DHT22;23517;50.390;8.616;2022-12-07T06:29:27;3.40;90.00
37678;DHT22;23517;50.390;8.616;2022-12-07T06:31:54;3.40;89.50
37678;DHT22;23517;50.390;8.616;2022-12-07T06:34:22;3.50;90.00
37678;DHT22;23517;50.390;8.616;2022-12-07T06:36:50;3.50;89.80
37678;DHT22;23517;50.390;8.616;2022-12-07T06:39:23;3.60;89.10
37678;DHT22;23517;50.390;8.616;2022-12-07T06:41:51;3.70;87.50
37678;DHT22;23517;50.390;8.616;2022-12-07T06:44:19;3.70;87.20
37678;DHT22;23517;50.390;8.616;2022-12-07T06:46:52;3.70;86.40
37678;DHT22;23517;50.390;8.616;2022-12-07T06:49:38;3.70;86.50
37678;DHT22;23517;50.390;8.616;2022-12-07T06:52:04;3.70;86.40
37678;DHT22;23517;50.390;8.616;2022-12-07T06:54:32;3.70;86.00
37678;DHT22;23517;50.390;8.616;2022-12-07T06:56:58;3.80;85.60
37678;DHT22;23517;50.390;8.616;2022-12-07T06:59:25;3.80;85.70
37678;DHT22;23517;50.390;8.616;2022-12-07T07:01:51;3.80;84.50
37678;DHT22;23517;50.390;8.616;2022-12-07T07:04:18;3.80;83.80
37678;DHT22;23517;50.390;8.616;2022-12-07T07:06:45;3.80;83.80
37678;DHT22;23517;50.390;8.616;2022-12-07T07:09:12;3.80;83.30
37678;DHT22;23517;50.390;8.616;2022-12-07T07:11:39;3.80;82.80
37678;DHT22;23517;50.390;8.616;2022-12-07T07:14:05;3.80;82.60
37678;DHT22;23517;50.390;8.616;2022-12-07T07:16:32;3.70;82.60
37678;DHT22;23517;50.390;8.616;2022-12-07T07:18:59;3.70;83.10
37678;DHT22;23517;50.390;8.616;2022-12-07T07:21:25;3.70;83.20
37678;DHT22;23517;50.390;8.616;2022-12-07T07:23:52;3.60;83.50
37678;DHT22;23517;50.390;8.616;2022-12-07T07:26:18;3.60;83.60
37678;DHT22;23517;50.390;8.616;2022-12-07T07:28:48;3.60;83.80
37678;DHT22;23517;50.390;8.616;2022-12-07T07:31:15;3.50;82.80
37678;DHT22;23517;50.390;8.616;2022-12-07T07:33:42;3.60;83.10
37678;DHT22;23517;50.390;8.616;2022-12-07T07:36:09;3.50;82.30
37678;DHT22;23517;50.390;8.616;2022-12-07T07:38:35;3.50;82.50
37678;DHT22;23517;50.390;8.616;2022-12-07T07:41:02;3.50;82.30
37678;DHT22;23517;50.390;8.616;2022-12-07T07:43:28;3.50;82.80
37678;DHT22;23517;50.390;8.616;2022-12-07T07:45:55;3.40;82.80
37678;DHT22;23517;50.390;8.616;2022-12-07T07:48:22;3.40;82.90
37678;DHT22;23517;50.390;8.616;2022-12-07T07:50:51;3.40;83.50
37678;DHT22;23517;50.390;8.616;2022-12-07T07:53:18;3.40;83.30
37678;DHT22;23517;50.390;8.616;2022-12-07T07:55:54;3.40;82.90
37678;DHT22;23517;50.390;8.616;2022-12-07T07:58:21;3.50;83.10
37678;DHT22;23517;50.390;8.616;2022-12-07T08:00:48;3.50;83.70
37678;DHT22;23517;50.390;8.616;2022-12-07T08:03:15;3.50;83.30
37678;DHT22;23517;50.390;8.616;2022-12-07T08:05:41;3.50;82.90
37678;DHT22;23517;50.390;8.616;2022-12-07T08:08:08;3.50;82.80
37678;DHT22;23517;50.390;8.616;2022-12-07T08:10:35;3.50;82.60
37678;DHT22;23517;50.390;8.616;2022-12-07T08:13:01;3.50;82.70
37678;DHT22;23517;50.390;8.616;2022-12-07T08:15:39;3.50;82.30
37678;DHT22;23517;50.390;8.616;2022-12-07T08:18:07;3.60;81.60
37678;DHT22;23517;50.390;8.616;2022-12-07T08:20:35;3.60;81.70
37678;DHT22;23517;50.390;8.616;2022-12-07T08:23:02;3.70;81.30
37678;DHT22;23517;50.390;8.616;2022-12-07T08:25:30;3.70;81.80
37678;DHT22;23517;50.390;8.616;2022-12-07T08:27:57;3.70;81.60
37678;DHT22;23517;50.390;8.616;2022-12-07T08:30:24;3.70;81.30
37678;DHT22;23517;50.390;8.616;2022-12-07T08:32:51;3.80;81.50
37678;DHT22;23517;50.390;8.616;2022-12-07T08:35:18;3.80;81.40
37678;DHT22;23517;50.390;8.616;2022-12-07T08:37:45;3.90;81.40
37678;DHT22;23517;50.390;8.616;2022-12-07T08:40:12;3.90;80.70
37678;DHT22;23517;50.390;8.616;2022-12-07T08:42:42;4.00;79.60
37678;DHT22;23517;50.390;8.616;2022-12-07T08:45:12;4.00;79.30
37678;DHT22;23517;50.390;8.616;2022-12-07T08:47:50;4.00;79.30
37678;DHT22;23517;50.390;8.616;2022-12-07T08:50:21;4.00;78.30
37678;DHT22;23517;50.390;8.616;2022-12-07T08:52:50;4.10;77.30
37678;DHT22;23517;50.390;8.616;2022-12-07T08:55:19;4.10;77.00
37678;DHT22;23517;50.390;8.616;2022-12-07T08:57:46;4.20;75.80
37678;DHT22;23517;50.390;8.616;2022-12-07T09:00:13;4.30;75.40
37678;DHT22;23517;50.390;8.616;2022-12-07T09:02:40;4.40;74.20
37678;DHT22;23517;50.390;8.616;2022-12-07T09:05:07;4.50;72.40
37678;DHT22;23517;50.390;8.616;2022-12-07T09:07:43;4.70;71.80
37678;DHT22;23517;50.390;8.616;2022-12-07T09:10:12;4.80;72.10
37678;DHT22;23517;50.390;8.616;2022-12-07T09:12:39;4.90;69.70
37678;DHT22;23517;50.390;8.616;2022-12-07T09:15:06;5.00;67.90
37678;DHT22;23517;50.390;8.616;2022-12-07T09:17:34;4.90;69.00
37678;DHT22;23517;50.390;8.616;2022-12-07T09:20:04;4.90;68.90
37678;DHT22;23517;50.390;8.616;2022-12-07T09:22:32;4.90;69.30
37678;DHT22;23517;50.390;8.616;2022-12-07T09:25:02;4.80;68.80
37678;DHT22;23517;50.390;8.616;2022-12-07T09:27:30;4.80;67.40
37678;DHT22;23517;50.390;8.616;2022-12-07T09:29:57;4.70;68.50
37678;DHT22;23517;50.390;8.616;2022-12-07T09:32:23;4.70;69.00
37678;DHT22;23517;50.390;8.616;2022-12-07T09:34:50;4.70;68.00
37678;DHT22;23517;50.390;8.616;2022-12-07T09:37:17;4.70;66.80
37678;DHT22;23517;50.390;8.616;2022-12-07T09:39:44;4.70;67.60
37678;DHT22;23517;50.390;8.616;2022-12-07T09:42:38;4.80;67.40
37678;DHT22;23517;50.390;8.616;2022-12-07T09:45:10;4.90;65.70
37678;DHT22;23517;50.390;8.616;2022-12-07T09:47:38;5.20;66.40
37678;DHT22;23517;50.390;8.616;2022-12-07T09:50:29;5.40;63.30
37678;DHT22;23517;50.390;8.616;2022-12-07T09:53:04;5.40;61.00
37678;DHT22;23517;50.390;8.616;2022-12-07T09:55:36;5.40;60.60
37678;DHT22;23517;50.390;8.616;2022-12-07T09:58:03;5.40;60.00
37678;DHT22;23517;50.390;8.616;2022-12-07T10:00:30;5.40;59.40
37678;DHT22;23517;50.390;8.616;2022-12-07T10:02:59;5.40;60.20
37678;DHT22;23517;50.390;8.616;2022-12-07T10:05:30;5.40;60.70
37678;DHT22;23517;50.390;8.616;2022-12-07T10:08:00;5.40;58.30
37678;DHT22;23517;50.390;8.616;2022-12-07T10:10:32;5.20;59.30
37678;DHT22;23517;50.390;8.616;2022-12-07T10:13:07;5.20;60.50
37678;DHT22;23517;50.390;8.616;2022-12-07T10:15:45;5.10;61.60
37678;DHT22;23517;50.390;8.616;2022-12-07T10:23:36;5.10;63.30
37678;DHT22;23517;50.390;8.616;2022-12-07T10:26:33;5.10;63.50
37678;DHT22;23517;50.390;8.616;2022-12-07T10:32:04;5.20;63.50
37678;DHT22;23517;50.390;8.616;2022-12-07T10:34:34;5.20;62.50
37678;DHT22;23517;50.390;8.616;2022-12-07T10:39:49;5.20;62.20
37678;DHT22;23517;50.390;8.616;2022-12-07T10:42:25;5.30;62.20
37678;DHT22;23517;50.390;8.616;2022-12-07T10:45:13;5.50;60.80
37678;DHT22;23517;50.390;8.616;2022-12-07T10:48:04;5.50;61.00
37678;DHT22;23517;50.390;8.616;2022-12-07T10:57:16;5.20;59.40
37678;DHT22;23517;50.390;8.616;2022-12-07T11:00:09;5.20;61.00
37678;DHT22;23517;50.390;8.616;2022-12-07T11:17:10;5.80;59.00
37678;DHT22;23517;50.390;8.616;2022-12-07T11:19:51;6.00;57.10
37678;DHT22;23517;50.390;8.616;2022-12-07T11:22:41;6.20;56.30
37678;DHT22;23517;50.390;8.616;2022-12-07T11:28:23;6.10;55.10
37678;DHT22;23517;50.390;8.616;2022-12-07T11:37:25;6.30;56.60
37678;DHT22;23517;50.390;8.616;2022-12-07T11:40:17;6.40;56.80
37678;DHT22;23517;50.390;8.616;2022-12-07T11:46:13;6.50;55.10
37678;DHT22;23517;50.390;8.616;2022-12-07T11:49:37;6.50;54.70
37678;DHT22;23517;50.390;8.616;2022-12-07T11:51:57;6.50;55.10
37678;DHT22;23517;50.390;8.616;2022-12-07T11:54:35;6.40;54.70
37678;DHT22;23517;50.390;8.616;2022-12-07T11:57:15;6.50;55.20
37678;DHT22;23517;50.390;8.616;2022-12-07T11:59:51;6.40;55.00
37678;DHT22;23517;50.390;8.616;2022-12-07T12:02:25;6.40;55.60
37678;DHT22;23517;50.390;8.616;2022-12-07T12:05:18;6.20;55.40
37678;DHT22;23517;50.390;8.616;2022-12-07T12:07:56;6.20;55.90
37678;DHT22;23517;50.390;8.616;2022-12-07T12:10:53;6.10;55.70
37678;DHT22;23517;50.390;8.616;2022-12-07T12:13:38;6.00;56.10
37678;DHT22;23517;50.390;8.616;2022-12-07T12:16:52;5.90;57.70
37678;DHT22;23517;50.390;8.616;2022-12-07T12:19:38;5.90;58.00
37678;DHT22;23517;50.390;8.616;2022-12-07T12:22:33;5.80;57.20
37678;DHT22;23517;50.390;8.616;2022-12-07T12:25:06;5.70;58.10
37678;DHT22;23517;50.390;8.616;2022-12-07T12:27:39;5.70;59.10
37678;DHT22;23517;50.390;8.616;2022-12-07T12:30:30;5.60;59.60
37678;DHT22;23517;50.390;8.616;2022-12-07T12:33:26;5.40;60.20
37678;DHT22;23517;50.390;8.616;2022-12-07T12:47:37;5.40;60.30
37678;DHT22;23517;50.390;8.616;2022-12-07T12:53:14;5.20;60.60
37678;DHT22;23517;50.390;8.616;2022-12-07T13:03:54;5.00;62.30
37678;DHT22;23517;50.390;8.616;2022-12-07T13:08:54;4.80;63.20
37678;DHT22;23517;50.390;8.616;2022-12-07T13:11:37;4.70;63.70
37678;DHT22;23517;50.390;8.616;2022-12-07T13:20:02;4.60;65.10
37678;DHT22;23517;50.390;8.616;2022-12-07T13:31:15;4.50;67.00
37678;DHT22;23517;50.390;8.616;2022-12-07T13:33:46;4.60;67.30
37678;DHT22;23517;50.390;8.616;2022-12-07T13:36:25;4.60;66.80
37678;DHT22;23517;50.390;8.616;2022-12-07T13:39:18;4.50;67.20
37678;DHT22;23517;50.390;8.616;2022-12-07T13:41:54;4.50;67.80
37678;DHT22;23517;50.390;8.616;2022-12-07T13:44:26;4.50;68.10
37678;DHT22;23517;50.390;8.616;2022-12-07T13:49:58;4.50;67.60
37678;DHT22;23517;50.390;8.616;2022-12-07T13:52:29;4.50;67.60
37678;DHT22;23517;50.390;8.616;2022-12-07T13:55:15;4.40;67.40
37678;DHT22;23517;50.390;8.616;2022-12-07T13:57:44;4.40;66.90
37678;DHT22;23517;50.390;8.616;2022-12-07T14:00:18;4.50;66.70
37678;DHT22;23517;50.390;8.616;2022-12-07T14:02:59;4.50;67.50
37678;DHT22;23517;50.390;8.616;2022-12-07T14:05:28;4.50;67.20
37678;DHT22;23517;50.390;8.616;2022-12-07T14:07:58;4.50;67.20
37678;DHT22;23517;50.390;8.616;2022-12-07T14:10:29;4.60;67.80
37678;DHT22;23517;50.390;8.616;2022-12-07T14:12:57;4.70;67.70
37678;DHT22;23517;50.390;8.616;2022-12-07T14:15:28;4.70;68.00
37678;DHT22;23517;50.390;8.616;2022-12-07T14:17:58;4.70;68.30
37678;DHT22;23517;50.390;8.616;2022-12-07T14:22:58;4.40;69.50
37678;DHT22;23517;50.390;8.616;2022-12-07T14:25:26;4.30;70.10
37678;DHT22;23517;50.390;8.616;2022-12-07T14:30:27;4.20;72.50
37678;DHT22;23517;50.390;8.616;2022-12-07T14:33:03;4.10;72.20
37678;DHT22;23517;50.390;8.616;2022-12-07T14:35:32;4.00;72.80
37678;DHT22;23517;50.390;8.616;2022-12-07T14:37:59;4.00;73.00
37678;DHT22;23517;50.390;8.616;2022-12-07T14:40:28;4.00;73.20
37678;DHT22;23517;50.390;8.616;2022-12-07T14:43:16;3.90;74.10
37678;DHT22;23517;50.390;8.616;2022-12-07T14:45:43;4.00;74.50
37678;DHT22;23517;50.390;8.616;2022-12-07T14:48:12;3.90;74.50
37678;DHT22;23517;50.390;8.616;2022-12-07T14:51:00;4.00;74.30
37678;DHT22;23517;50.390;8.616;2022-12-07T14:53:50;4.00;74.50
37678;DHT22;23517;50.390;8.616;2022-12-07T14:56:23;4.00;74.30
37678;DHT22;23517;50.390;8.616;2022-12-07T14:58:50;4.10;74.40
37678;DHT22;23517;50.390;8.616;2022-12-07T15:01:17;4.10;74.50
37678;DHT22;23517;50.390;8.616;2022-12-07T15:03:43;4.20;74.20
37678;DHT22;23517;50.390;8.616;2022-12-07T15:06:14;4.20;73.70
37678;DHT22;23517;50.390;8.616;2022-12-07T15:08:42;4.20;74.00
37678;DHT22;23517;50.390;8.616;2022-12-07T15:11:13;4.20;74.00
37678;DHT22;23517;50.390;8.616;2022-12-07T15:13:43;4.20;73.70
37678;DHT22;23517;50.390;8.616;2022-12-07T15:16:28;4.20;73.30
37678;DHT22;23517;50.390;8.616;2022-12-07T15:19:20;4.20;73.20
37678;DHT22;23517;50.390;8.616;2022-12-07T15:21:54;4.20;73.50
37678;DHT22;23517;50.390;8.616;2022-12-07T15:24:21;4.10;73.70
37678;DHT22;23517;50.390;8.616;2022-12-07T15:26:48;4.10;74.00
37678;DHT22;23517;50.390;8.616;2022-12-07T15:29:14;4.10;74.40
37678;DHT22;23517;50.390;8.616;2022-12-07T15:31:49;4.10;74.20
37678;DHT22;23517;50.390;8.616;2022-12-07T15:34:25;4.00;74.40
37678;DHT22;23517;50.390;8.616;2022-12-07T15:37:01;4.00;75.30
37678;DHT22;23517;50.390;8.616;2022-12-07T15:39:28;3.90;76.00
37678;DHT22;23517;50.390;8.616;2022-12-07T15:41:54;4.00;75.90
37678;DHT22;23517;50.390;8.616;2022-12-07T15:44:22;4.00;76.10
37678;DHT22;23517;50.390;8.616;2022-12-07T15:47:07;4.00;76.30
37678;DHT22;23517;50.390;8.616;2022-12-07T15:49:34;4.00;75.70
37678;DHT22;23517;50.390;8.616;2022-12-07T15:52:01;4.00;75.30
37678;DHT22;23517;50.390;8.616;2022-12-07T15:54:29;4.00;75.10
37678;DHT22;23517;50.390;8.616;2022-12-07T15:56:56;4.00;73.60
37678;DHT22;23517;50.390;8.616;2022-12-07T15:59:23;4.00;73.50
37678;DHT22;23517;50.390;8.616;2022-12-07T16:01:52;4.00;73.80
37678;DHT22;23517;50.390;8.616;2022-12-07T16:04:18;4.00;73.10
37678;DHT22;23517;50.390;8.616;2022-12-07T16:06:45;4.00;72.30
37678;DHT22;23517;50.390;8.616;2022-12-07T16:09:12;4.00;72.60
37678;DHT22;23517;50.390;8.616;2022-12-07T16:11:39;3.90;72.70
37678;DHT22;23517;50.390;8.616;2022-12-07T16:14:06;3.90;73.10
37678;DHT22;23517;50.390;8.616;2022-12-07T16:16:32;3.90;73.20
37678;DHT22;23517;50.390;8.616;2022-12-07T16:18:59;3.90;73.50
37678;DHT22;23517;50.390;8.616;2022-12-07T16:21:26;3.90;73.60
37678;DHT22;23517;50.390;8.616;2022-12-07T16:23:52;3.90;73.80
37678;DHT22;23517;50.390;8.616;2022-12-07T16:26:22;3.90;73.40
37678;DHT22;23517;50.390;8.616;2022-12-07T16:28:50;3.80;73.40
37678;DHT22;23517;50.390;8.616;2022-12-07T16:31:19;3.90;73.60
37678;DHT22;23517;50.390;8.616;2022-12-07T16:33:47;3.90;73.60
37678;DHT22;23517;50.390;8.616;2022-12-07T16:36:16;3.90;73.50
37678;DHT22;23517;50.390;8.616;2022-12-07T16:39:04;3.90;74.40
37678;DHT22;23517;50.390;8.616;2022-12-07T16:41:31;3.80;74.30
37678;DHT22;23517;50.390;8.616;2022-12-07T16:44:06;3.90;75.60
37678;DHT22;23517;50.390;8.616;2022-12-07T16:46:35;3.80;75.50
37678;DHT22;23517;50.390;8.616;2022-12-07T16:49:03;3.80;75.20
37678;DHT22;23517;50.390;8.616;2022-12-07T16:51:30;3.80;75.50
37678;DHT22;23517;50.390;8.616;2022-12-07T16:53:57;3.90;75.30
37678;DHT22;23517;50.390;8.616;2022-12-07T16:56:25;3.80;75.30
37678;DHT22;23517;50.390;8.616;2022-12-07T16:58:52;3.80;75.90
37678;DHT22;23517;50.390;8.616;2022-12-07T17:01:20;3.80;76.00
37678;DHT22;23517;50.390;8.616;2022-12-07T17:03:49;3.80;76.40
37678;DHT22;23517;50.390;8.616;2022-12-07T17:06:21;3.80;75.90
37678;DHT22;23517;50.390;8.616;2022-12-07T17:08:50;3.80;76.40
37678;DHT22;23517;50.390;8.616;2022-12-07T17:11:27;3.70;76.80
37678;DHT22;23517;50.390;8.616;2022-12-07T17:13:57;3.70;77.60
37678;DHT22;23517;50.390;8.616;2022-12-07T17:16:51;3.80;77.30
37678;DHT22;23517;50.390;8.616;2022-12-07T17:19:25;3.90;77.00
37678;DHT22;23517;50.390;8.616;2022-12-07T17:21:56;3.90;76.80
37678;DHT22;23517;50.390;8.616;2022-12-07T17:24:33;3.90;76.30
37678;DHT22;23517;50.390;8.616;2022-12-07T17:27:00;3.90;76.50
37678;DHT22;23517;50.390;8.616;2022-12-07T17:29:26;4.00;75.90
37678;DHT22;23517;50.390;8.616;2022-12-07T17:31:53;4.00;75.60
37678;DHT22;23517;50.390;8.616;2022-12-07T17:34:19;3.90;75.20
37678;DHT22;23517;50.390;8.616;2022-12-07T17:36:46;4.00;75.70
37678;DHT22;23517;50.390;8.616;2022-12-07T17:39:16;3.90;75.70
37678;DHT22;23517;50.390;8.616;2022-12-07T17:41:44;4.00;75.40
37678;DHT22;23517;50.390;8.616;2022-12-07T17:44:29;3.90;75.40
37678;DHT22;23517;50.390;8.616;2022-12-07T17:46:56;4.00;75.10
37678;DHT22;23517;50.390;8.616;2022-12-07T17:49:25;3.90;75.10
37678;DHT22;23517;50.390;8.616;2022-12-07T17:51:52;3.90;75.50
37678;DHT22;23517;50.390;8.616;2022-12-07T17:54:37;3.90;75.30
37678;DHT22;23517;50.390;8.616;2022-12-07T17:57:04;3.90;76.00
37678;DHT22;23517;50.390;8.616;2022-12-07T17:59:31;3.90;76.00
37678;DHT22;23517;50.390;8.616;2022-12-07T18:01:57;3.90;75.50
37678;DHT22;23517;50.390;8.616;2022-12-07T18:04:24;3.90;75.10
37678;DHT22;23517;50.390;8.616;2022-12-07T18:06:51;3.80;75.10
37678;DHT22;23517;50.390;8.616;2022-12-07T18:09:18;3.80;74.90
37678;DHT22;23517;50.390;8.616;2022-12-07T18:11:46;3.70;75.70
37678;DHT22;23517;50.390;8.616;2022-12-07T18:14:13;3.70;76.00
37678;DHT22;23517;50.390;8.616;2022-12-07T18:16:39;3.70;76.30